Time;durP1;ratioP1;P1;durP2;ratioP2;P2;SDS_P1;SDS_P2;PMS_P1;PMS_P2;Temp;Humidity;BMP_temperature;BMP_pressure;BME280_temperature;BME280_humidity;BME280_pressure;Samples;Min_cycle;Max_cycle;Signal;HPM_P1;HPM_P2
2023/12/21 00:01:36;;;;;;;3.63;2.13;;;;;;;2.39;76.10;98111.56;4859660;29;20435;-69
2023/12/21 00:04:06;;;;;;;6.15;2.35;;;;;;;2.40;75.90;98102.16;4874316;29;20424;-72
2023/12/21 00:06:33;;;;;;;4.88;2.50;;;;;;;2.39;75.27;98108.16;4843210;29;20504;-71
2023/12/21 00:09:06;;;;;;;3.90;2.10;;;;;;;2.39;76.26;98101.28;4859573;29;20551;-69
2023/12/21 00:11:37;;;;;;;4.63;2.75;;;;;;;2.41;76.22;98078.19;4847226;29;20041;-68
2023/12/21 00:14:10;;;;;;;3.78;2.20;;;;;;;2.19;75.94;98031.19;4847065;29;20045;-69
2023/12/21 00:16:36;;;;;;;4.00;1.92;;;;;;;2.12;76.59;98007.28;4859256;29;20056;-69
2023/12/21 00:19:02;;;;;;;3.83;2.30;;;;;;;2.42;76.18;98061.94;4872231;29;20079;-69
2023/12/21 00:21:28;;;;;;;3.40;1.80;;;;;;;2.39;76.73;98052.50;4875138;29;20052;-67
2023/12/21 00:23:55;;;;;;;3.58;2.25;;;;;;;2.59;76.22;98079.81;4872196;29;20441;-69
2023/12/21 00:26:24;;;;;;;2.88;1.90;;;;;;;2.45;76.55;98055.91;4859324;29;20154;-67
2023/12/21 00:28:50;;;;;;;3.17;2.10;;;;;;;2.58;75.76;98079.84;4871597;29;20536;-67
2023/12/21 00:31:19;;;;;;;2.60;2.00;;;;;;;2.59;76.52;98069.53;4887272;29;20045;-68
2023/12/21 00:33:46;;;;;;;4.15;2.17;;;;;;;2.68;76.16;98082.34;4843941;29;20098;-67
2023/12/21 00:36:20;;;;;;;5.30;1.90;;;;;;;2.45;76.25;98046.50;4854186;29;20144;-68
2023/12/21 00:38:49;;;;;;;2.72;1.77;;;;;;;2.54;76.47;98068.69;4852310;29;20463;-70
2023/12/21 00:41:23;;;;;;;3.33;1.92;;;;;;;2.32;75.80;98022.56;4874718;29;20541;-69
2023/12/21 00:43:59;;;;;;;3.95;1.88;;;;;;;2.51;76.11;98037.94;4842099;29;20532;-67
2023/12/21 00:46:25;;;;;;;2.67;1.98;;;;;;;2.65;76.64;98032.72;4872367;29;20138;-67
2023/12/21 00:48:51;;;;;;;3.08;1.90;;;;;;;2.69;76.46;98026.69;4873930;29;20133;-67
2023/12/21 00:51:20;;;;;;;2.63;1.63;;;;;;;2.50;75.61;98013.09;4844277;29;20056;-66
2023/12/21 00:53:46;;;;;;;2.42;1.60;;;;;;;2.32;76.06;97968.66;4871072;29;20458;-67
2023/12/21 00:56:18;;;;;;;2.83;1.60;;;;;;;2.48;75.89;97989.16;4857705;29;20041;-68
2023/12/21 00:58:43;;;;;;;3.17;1.67;;;;;;;2.52;75.44;98016.53;4873084;29;20052;-70
2023/12/21 01:01:09;;;;;;;2.38;1.67;;;;;;;2.24;76.43;97970.44;4856115;29;20472;-68
2023/12/21 01:03:38;;;;;;;2.05;1.50;;;;;;;2.60;76.43;98004.47;4871463;29;20486;-69
2023/12/21 01:06:12;;;;;;;1.77;1.58;;;;;;;2.41;76.62;97945.53;4860320;29;20060;-69
2023/12/21 01:08:40;;;;;;;3.03;1.50;;;;;;;2.55;76.04;97963.44;4860191;29;20053;-70
2023/12/21 01:11:06;;;;;;;2.42;1.50;;;;;;;2.59;76.78;97965.97;4873368;29;20048;-69
2023/12/21 01:13:38;;;;;;;3.65;1.30;;;;;;;2.50;75.55;97974.59;4860353;29;20045;-69
2023/12/21 01:16:04;;;;;;;2.08;1.45;;;;;;;2.47;75.87;97966.91;4873462;29;20044;-68
2023/12/21 01:18:31;;;;;;;2.65;1.33;;;;;;;2.06;76.07;97904.66;4872771;29;20041;-68
2023/12/21 01:21:06;;;;;;;2.50;1.63;;;;;;;2.21;76.33;97934.50;4841249;29;20140;-68
2023/12/21 01:23:35;;;;;;;1.80;1.48;;;;;;;2.20;75.85;97933.69;4870894;29;20056;-68
2023/12/21 01:26:04;;;;;;;1.70;1.30;;;;;;;1.83;76.44;97863.72;4858457;29;20042;-69
2023/12/21 01:28:30;;;;;;;1.90;1.30;;;;;;;2.11;76.54;97896.06;4857587;29;20047;-69
2023/12/21 01:31:02;;;;;;;2.35;1.50;;;;;;;2.48;76.49;97953.19;4871769;29;20048;-69
2023/12/21 01:33:31;;;;;;;2.35;1.48;;;;;;;2.18;76.58;97906.28;4854327;29;20049;-69
2023/12/21 01:35:57;;;;;;;1.48;1.15;;;;;;;1.95;76.11;97879.03;4839292;29;20044;-69
2023/12/21 01:38:26;;;;;;;2.22;1.40;;;;;;;2.26;76.10;97922.53;4829193;29;20408;-71
2023/12/21 01:40:53;;;;;;;1.25;1.00;;;;;;;2.26;76.29;97930.22;4857153;29;20139;-69
2023/12/21 01:43:22;;;;;;;1.33;1.13;;;;;;;2.22;75.73;97921.66;4847088;29;20603;-69
2023/12/21 01:45:50;;;;;;;1.88;1.23;;;;;;;2.19;75.54;97902.88;4855820;29;20049;-70
2023/12/21 01:48:17;;;;;;;4.15;2.40;;;;;;;1.96;76.36;97844.81;4875894;29;20042;-69
2023/12/21 01:50:45;;;;;;;7.60;3.88;;;;;;;2.22;76.00;97897.72;4852729;29;20044;-69
2023/12/21 01:53:22;;;;;;;2.08;1.35;;;;;;;2.32;76.46;97903.66;4857020;29;20113;-70
2023/12/21 01:55:48;;;;;;;1.85;1.27;;;;;;;1.74;76.63;97809.03;4872254;29;21538;-69
2023/12/21 01:58:15;;;;;;;1.65;1.02;;;;;;;2.35;76.60;97898.50;4870836;29;20131;-69
2023/12/21 02:00:44;;;;;;;1.92;1.10;;;;;;;2.33;75.83;97900.22;4874563;29;20482;-69
2023/12/21 02:03:12;;;;;;;1.38;1.00;;;;;;;2.09;76.35;97858.44;4859645;29;20057;-69
2023/12/21 02:05:44;;;;;;;1.52;1.30;;;;;;;2.29;76.06;97894.28;4861389;29;20508;-70
2023/12/21 02:08:10;;;;;;;;;;;;;;;2.26;76.30;97890.00;4855542;29;20063;-70
2023/12/21 02:10:39;;;;;;;0.90;0.80;;;;;;;1.69;75.75;97810.75;4871701;29;19923;-69
2023/12/21 02:13:08;;;;;;;1.08;0.93;;;;;;;2.18;76.38;97896.03;4860843;29;20045;-71
2023/12/21 02:15:34;;;;;;;1.40;0.90;;;;;;;2.18;76.62;97883.19;4844430;29;20052;-69
2023/12/21 02:18:12;;;;;;;1.00;0.90;;;;;;;2.06;76.68;97849.06;4841620;29;20408;-69
2023/12/21 02:20:43;;;;;;;0.90;0.80;;;;;;;2.16;76.72;97856.69;4871201;29;20071;-69
2023/12/21 02:23:11;;;;;;;1.23;0.90;;;;;;;2.30;76.43;97865.16;4856402;29;20052;-69
2023/12/21 02:25:37;;;;;;;0.80;0.70;;;;;;;2.04;76.51;97811.44;4870754;29;20045;-69
2023/12/21 02:28:03;;;;;;;1.52;0.90;;;;;;;1.81;76.40;97794.47;4858854;29;20037;-69
2023/12/21 02:30:29;;;;;;;1.20;0.85;;;;;;;2.29;76.78;97858.34;4870800;29;20073;-69
2023/12/21 02:33:04;;;;;;;1.15;0.95;;;;;;;2.20;76.26;97832.72;4857057;29;20047;-69
2023/12/21 02:35:33;;;;;;;0.85;0.82;;;;;;;2.00;76.43;97805.47;4869458;29;20038;-69
2023/12/21 02:37:59;;;;;;;1.27;1.00;;;;;;;2.31;76.62;97845.47;4876183;29;20037;-69
2023/12/21 02:40:25;;;;;;;1.38;1.10;;;;;;;1.96;76.62;97770.44;4843450;29;20056;-69
2023/12/21 02:42:51;;;;;;;1.25;0.93;;;;;;;2.38;76.71;97829.19;4858355;29;20521;-69
2023/12/21 02:45:18;;;;;;;1.20;1.10;;;;;;;2.35;76.53;97827.47;4858023;29;20543;-69
2023/12/21 02:47:50;;;;;;;1.17;0.90;;;;;;;2.39;76.29;97844.56;4873247;29;20063;-69
2023/12/21 02:50:19;;;;;;;1.20;1.00;;;;;;;2.40;77.03;97838.56;4871448;29;20053;-69
2023/12/21 02:52:48;;;;;;;1.25;0.98;;;;;;;2.33;76.45;97824.06;4871573;29;20041;-69
2023/12/21 02:55:15;;;;;;;1.67;1.40;;;;;;;2.26;76.66;97817.28;4873459;29;20270;-69
2023/12/21 02:57:44;;;;;;;2.08;1.20;;;;;;;2.40;76.41;97833.44;4856881;29;20045;-69
2023/12/21 03:00:13;;;;;;;1.20;1.00;;;;;;;2.22;76.63;97797.63;4859250;29;20049;-69
2023/12/21 03:02:39;;;;;;;1.85;1.10;;;;;;;2.18;76.63;97791.69;4861183;29;20060;-68
2023/12/21 03:05:06;;;;;;;1.23;0.98;;;;;;;2.37;76.11;97820.59;4857651;29;20056;-68
2023/12/21 03:07:32;;;;;;;2.08;1.10;;;;;;;2.48;76.88;97828.22;4861649;29;20109;-68
2023/12/21 03:09:58;;;;;;;1.67;1.10;;;;;;;2.32;76.62;97796.69;4875036;29;20500;-67
2023/12/21 03:12:27;;;;;;;1.13;1.02;;;;;;;2.49;76.79;97824.78;4873508;29;20045;-68
2023/12/21 03:14:53;;;;;;;1.55;1.20;;;;;;;2.40;76.25;97806.91;4872056;29;20068;-66
2023/12/21 03:17:19;;;;;;;1.58;1.27;;;;;;;2.57;76.41;97824.72;4875526;29;20069;-67
2023/12/21 03:19:48;;;;;;;1.48;1.00;;;;;;;2.55;76.69;97808.47;4859378;29;20053;-70
2023/12/21 03:22:14;;;;;;;1.88;1.40;;;;;;;2.38;76.43;97770.97;4877627;29;20044;-70
2023/12/21 03:24:43;;;;;;;1.50;1.30;;;;;;;2.15;76.63;97731.81;4876465;29;20052;-71
2023/12/21 03:27:14;;;;;;;1.48;1.20;;;;;;;2.61;76.34;97813.56;4850357;29;20538;-69
2023/12/21 03:29:46;;;;;;;3.15;1.40;;;;;;;2.62;76.47;97810.13;4875144;29;20047;-72
2023/12/21 03:32:12;;;;;;;1.67;1.20;;;;;;;2.61;76.19;97823.84;4865029;29;20111;-70
2023/12/21 03:34:51;;;;;;;1.52;1.20;;;;;;;2.58;76.33;97798.19;4864990;29;20053;-71
2023/12/21 03:37:27;;;;;;;1.70;1.20;;;;;;;2.16;76.43;97716.41;4875434;29;20044;-71
2023/12/21 03:39:55;;;;;;;2.88;1.50;;;;;;;2.55;76.65;97787.94;4861428;29;20053;-69
2023/12/21 03:42:21;;;;;;;2.53;1.52;;;;;;;2.66;76.45;97800.69;4864427;29;20056;-71
2023/12/21 03:44:53;;;;;;;2.92;1.55;;;;;;;2.62;76.08;97786.19;4862179;29;20049;-70
2023/12/21 03:47:19;;;;;;;2.50;1.45;;;;;;;2.73;76.53;97801.50;4876366;29;20072;-71
2023/12/21 03:49:45;;;;;;;3.88;1.60;;;;;;;2.56;76.16;97769.97;4877246;29;20045;-69
2023/12/21 03:52:15;;;;;;;1.60;1.40;;;;;;;2.55;76.14;97777.66;4862435;29;20060;-71
2023/12/21 03:54:48;;;;;;;2.03;1.75;;;;;;;1.85;76.27;97687.59;4849041;29;20173;-73
2023/12/21 03:57:14;;;;;;;2.13;1.65;;;;;;;2.57;76.73;97791.34;4863781;29;20516;-74
2023/12/21 03:59:43;;;;;;;2.10;1.63;;;;;;;2.19;76.69;97725.78;4881974;29;20045;-73
2023/12/21 04:02:13;;;;;;;3.00;2.03;;;;;;;2.44;76.49;97766.66;4857206;29;20069;-72
2023/12/21 04:04:53;;;;;;;;;;;;;;;2.66;75.98;97796.41;4845351;29;20053;-73
2023/12/21 04:07:39;;;;;;;2.20;1.80;;;;;;;2.59;76.11;97781.09;4860449;29;19930;-72
2023/12/21 04:10:06;;;;;;;2.15;1.83;;;;;;;2.46;76.42;97757.22;4840873;29;20082;-73
2023/12/21 04:12:37;;;;;;;5.18;2.13;;;;;;;2.67;76.12;97780.13;4861317;29;20131;-71
2023/12/21 04:15:11;;;;;;;2.65;2.10;;;;;;;2.75;76.23;97803.19;4856332;29;20143;-73
2023/12/21 04:17:43;;;;;;;7.10;2.33;;;;;;;2.28;75.98;97727.41;4858443;29;20046;-72
2023/12/21 04:20:11;;;;;;;2.22;1.90;;;;;;;2.61;76.67;97771.66;4859170;29;20104;-71
2023/12/21 04:22:38;;;;;;;3.20;2.10;;;;;;;2.61;76.65;97772.47;4836331;29;20395;-71
2023/12/21 04:25:10;;;;;;;4.63;2.45;;;;;;;2.55;76.38;97763.13;4845142;29;20042;-71
2023/12/21 04:27:39;;;;;;;2.45;2.03;;;;;;;2.48;76.66;97755.50;4846199;29;20040;-72
2023/12/21 04:30:08;;;;;;;3.30;2.60;;;;;;;2.75;76.51;97802.34;4861622;29;20045;-72
2023/12/21 04:32:38;;;;;;;2.78;2.13;;;;;;;2.23;75.94;97718.03;4848855;29;20037;-71
2023/12/21 04:35:04;;;;;;;2.90;2.00;;;;;;;2.32;76.10;97742.78;4813608;29;20523;-72
2023/12/21 04:37:35;;;;;;;2.50;2.03;;;;;;;2.24;75.81;97729.19;4846126;29;20049;-70
2023/12/21 04:40:03;;;;;;;2.60;2.05;;;;;;;2.55;76.13;97793.94;4844290;29;20140;-71
2023/12/21 04:42:34;;;;;;;2.30;2.10;;;;;;;2.48;75.80;97802.56;4844825;29;20502;-72
2023/12/21 04:45:02;;;;;;;2.50;2.00;;;;;;;2.41;76.27;97791.50;4843528;29;20049;-71
2023/12/21 04:47:29;;;;;;;2.60;2.00;;;;;;;2.47;75.96;97792.31;4847159;29;20063;-71
2023/12/21 04:49:58;;;;;;;2.72;2.15;;;;;;;2.21;76.38;97768.53;4846649;29;20068;-72
2023/12/21 04:52:30;;;;;;;2.33;2.13;;;;;;;2.42;76.50;97800.06;4851914;29;20049;-72
2023/12/21 04:54:59;;;;;;;4.32;2.20;;;;;;;2.20;76.39;97761.72;4845642;29;20042;-70
2023/12/21 04:57:25;;;;;;;4.43;2.58;;;;;;;2.11;76.18;97749.78;4856855;29;20041;-71
2023/12/21 04:59:54;;;;;;;2.95;2.15;;;;;;;2.20;76.61;97772.00;4831767;29;20505;-72
2023/12/21 05:02:20;;;;;;;3.13;2.42;;;;;;;2.15;75.98;97775.44;4854144;29;20071;-71
2023/12/21 05:04:46;;;;;;;3.58;2.33;;;;;;;2.00;76.43;97764.41;4875083;29;20079;-71
2023/12/21 05:07:23;;;;;;;4.53;2.40;;;;;;;2.22;76.49;97806.16;4849533;29;20044;-70
2023/12/21 05:09:59;;;;;;;2.42;2.00;;;;;;;2.14;76.28;97791.69;4876304;29;20049;-72
2023/12/21 05:12:28;;;;;;;3.80;2.10;;;;;;;2.24;76.18;97814.72;4840988;29;20044;-72
2023/12/21 05:15:00;;;;;;;3.10;2.00;;;;;;;2.22;76.17;97819.00;4844778;29;20053;-73
2023/12/21 05:17:29;;;;;;;3.90;2.30;;;;;;;1.89;76.65;97758.50;4862625;29;20060;-76
2023/12/21 05:19:57;;;;;;;2.40;2.10;;;;;;;1.70;76.76;97727.00;4861837;29;20121;-74
2023/12/21 05:22:26;;;;;;;2.78;2.20;;;;;;;1.96;76.54;97765.28;4855838;29;20079;-75
2023/12/21 05:24:54;;;;;;;2.17;1.92;;;;;;;1.49;76.67;97682.69;4860364;29;20052;-73
2023/12/21 05:27:29;;;;;;;4.32;2.22;;;;;;;2.09;76.11;97784.91;4877248;29;20037;-71
2023/12/21 05:30:02;;;;;;;4.57;2.28;;;;;;;2.30;76.64;97816.41;4877832;29;20055;-72
2023/12/21 05:32:32;;;;;;;4.10;2.20;;;;;;;2.23;76.84;97801.91;4875549;29;20066;-72
2023/12/21 05:35:03;;;;;;;3.65;2.47;;;;;;;2.34;76.83;97822.34;4874046;29;20192;-72
2023/12/21 05:37:30;;;;;;;2.65;2.25;;;;;;;2.26;77.23;97818.13;4859485;29;20113;-72
2023/12/21 05:39:56;;;;;;;3.83;2.40;;;;;;;1.90;76.90;97757.63;4859871;29;20049;-72
2023/12/21 05:42:22;;;;;;;3.83;2.20;;;;;;;2.34;76.81;97825.75;4863082;29;20051;-72
2023/12/21 05:44:48;;;;;;;3.25;2.15;;;;;;;2.26;76.54;97823.25;4874411;29;20512;-72
2023/12/21 05:47:20;;;;;;;3.63;2.08;;;;;;;2.03;76.40;97790.06;4864473;29;20089;-71
2023/12/21 05:49:48;;;;;;;3.28;2.40;;;;;;;2.33;76.60;97831.75;4863202;29;20050;-71
2023/12/21 05:52:17;;;;;;;3.92;2.30;;;;;;;2.35;76.56;97840.31;4862705;29;20672;-73
2023/12/21 05:54:49;;;;;;;3.85;2.40;;;;;;;2.09;76.64;97789.16;4860575;29;20063;-74
2023/12/21 05:57:18;;;;;;;2.72;2.10;;;;;;;1.90;76.83;97758.50;4878663;29;20065;-73
2023/12/21 05:59:46;;;;;;;4.27;2.30;;;;;;;2.29;76.50;97814.69;4859537;29;20063;-72
2023/12/21 06:02:16;;;;;;;4.28;2.33;;;;;;;2.30;76.50;97825.81;4863103;29;20049;-72
2023/12/21 06:04:41;;;;;;;3.30;2.22;;;;;;;1.93;76.69;97785.84;4860698;29;20049;-72
2023/12/21 06:07:10;;;;;;;4.18;2.50;;;;;;;2.43;76.56;97850.50;4860492;29;20108;-72
2023/12/21 06:09:39;;;;;;;5.43;2.30;;;;;;;2.38;76.56;97847.16;4858341;29;20051;-72
2023/12/21 06:12:06;;;;;;;4.68;2.42;;;;;;;2.44;76.72;97854.78;4859573;29;20053;-70
2023/12/21 06:14:34;;;;;;;2.53;1.90;;;;;;;2.48;76.60;97842.78;4859437;29;20045;-71
2023/12/21 06:17:11;;;;;;;2.60;2.20;;;;;;;2.22;76.80;97806.16;4829662;29;20041;-70
2023/12/21 06:20:00;;;;;;;3.47;2.22;;;;;;;2.36;76.99;97831.75;4861833;29;20045;-70
2023/12/21 06:22:30;;;;;;;3.30;2.20;;;;;;;2.00;76.01;97777.25;4875300;29;20140;-71
2023/12/21 06:24:57;;;;;;;4.68;2.10;;;;;;;2.35;76.69;97837.72;4856477;29;20056;-71
2023/12/21 06:27:26;;;;;;;3.50;2.05;;;;;;;1.94;77.15;97769.59;4877448;29;20404;-71
2023/12/21 06:30:00;;;;;;;3.55;2.30;;;;;;;1.98;76.60;97768.72;4878359;29;20044;-72
2023/12/21 06:32:44;;;;;;;4.50;2.80;;;;;;;2.01;76.66;97790.91;4850681;29;20036;-73
2023/12/21 06:35:20;;;;;;;4.95;2.67;;;;;;;1.36;76.25;97679.34;4861630;29;20052;-74
2023/12/21 06:37:49;;;;;;;4.25;2.35;;;;;;;1.93;76.27;97773.88;4877824;29;20032;-72
2023/12/21 06:40:18;;;;;;;3.45;2.78;;;;;;;2.54;76.47;97874.41;4843321;29;20046;-71
2023/12/21 06:42:48;;;;;;;3.42;2.30;;;;;;;2.15;76.92;97798.53;4851332;29;20551;-72
2023/12/21 06:45:14;;;;;;;4.40;2.50;;;;;;;2.40;76.59;97842.84;4855547;29;20137;-72
2023/12/21 06:47:41;;;;;;;2.47;2.00;;;;;;;2.53;76.58;97866.72;4876302;29;20510;-72
2023/12/21 06:50:07;;;;;;;2.88;2.38;;;;;;;2.49;76.48;97855.59;4862323;29;20075;-72
2023/12/21 06:52:34;;;;;;;4.28;2.55;;;;;;;2.69;76.55;97880.28;4845884;29;20214;-74
2023/12/21 06:55:03;;;;;;;12.90;2.35;;;;;;;2.74;76.66;97888.81;4855342;29;20045;-71
2023/12/21 06:57:31;;;;;;;3.83;2.63;;;;;;;2.37;76.74;97814.63;4875709;29;20044;-71
2023/12/21 07:00:00;;;;;;;6.18;3.00;;;;;;;2.60;76.46;97847.00;4877742;29;20101;-71
2023/12/21 07:02:28;;;;;;;3.97;2.50;;;;;;;2.71;76.50;97876.84;4876964;29;20055;-71
2023/12/21 07:04:55;;;;;;;3.47;2.30;;;;;;;2.79;76.52;97883.63;4870838;29;20141;-69
2023/12/21 07:07:21;;;;;;;3.70;2.35;;;;;;;2.44;76.31;97823.13;4860674;29;20064;-71
2023/12/21 07:09:47;;;;;;;3.28;2.60;;;;;;;2.54;76.21;97842.72;4834544;29;20045;-69
2023/12/21 07:12:14;;;;;;;3.63;2.70;;;;;;;2.13;76.35;97772.88;4873841;29;20654;-70
2023/12/21 07:14:49;;;;;;;4.65;2.67;;;;;;;2.64;76.50;97857.22;4857276;29;20044;-67
2023/12/21 07:17:19;;;;;;;4.00;2.80;;;;;;;2.52;76.58;97818.81;4873265;29;20048;-70
2023/12/21 07:19:51;;;;;;;5.82;2.67;;;;;;;2.86;76.10;97867.31;4856029;29;20044;-69
2023/12/21 07:22:19;;;;;;;3.17;2.28;;;;;;;2.92;76.05;97880.09;4859922;29;20076;-68
2023/12/21 07:24:50;;;;;;;3.20;2.28;;;;;;;3.00;76.24;97885.19;4871333;29;20049;-69
2023/12/21 07:27:16;;;;;;;3.70;2.47;;;;;;;2.86;76.14;97857.91;4870251;29;20051;-69
2023/12/21 07:29:45;;;;;;;2.70;2.45;;;;;;;2.97;75.95;97883.50;4871316;29;20044;-69
2023/12/21 07:32:11;;;;;;;4.85;2.70;;;;;;;2.91;76.22;97880.97;4872431;29;20579;-69
2023/12/21 07:34:36;;;;;;;4.32;2.50;;;;;;;2.96;75.99;97889.50;4871896;29;20053;-68
2023/12/21 07:37:03;;;;;;;4.30;2.30;;;;;;;2.95;76.15;97895.50;4857356;29;20081;-69
2023/12/21 07:39:32;;;;;;;4.18;2.70;;;;;;;3.09;75.86;97908.22;4873678;29;20041;-69
2023/12/21 07:42:01;;;;;;;5.63;2.75;;;;;;;3.01;75.88;97908.28;4873959;29;20049;-69
2023/12/21 07:44:30;;;;;;;5.57;2.90;;;;;;;3.12;75.81;97917.63;4857898;29;20111;-69
2023/12/21 07:47:02;;;;;;;4.50;2.40;;;;;;;2.93;75.96;97893.78;4859068;29;20036;-70
2023/12/21 07:49:31;;;;;;;4.53;2.55;;;;;;;3.11;75.53;97929.59;4824309;29;20068;-70
2023/12/21 07:51:58;;;;;;;5.35;2.70;;;;;;;3.01;75.76;97926.25;4848613;29;20037;-69
2023/12/21 07:54:24;;;;;;;4.00;2.58;;;;;;;2.74;75.97;97887.97;4874482;29;20324;-69
2023/12/21 07:56:50;;;;;;;7.85;3.00;;;;;;;3.11;75.92;97931.34;4875194;29;20037;-69
2023/12/21 07:59:23;;;;;;;5.22;3.28;;;;;;;2.98;75.23;97920.31;4873836;29;20103;-70
2023/12/21 08:01:53;;;;;;;5.60;3.20;;;;;;;2.99;75.54;97922.84;4859984;29;20555;-69
2023/12/21 08:04:25;;;;;;;5.63;3.38;;;;;;;2.93;75.88;97914.34;4861364;29;20114;-68
2023/12/21 08:06:54;;;;;;;6.80;3.22;;;;;;;3.12;75.80;97946.75;4876840;29;20049;-68
2023/12/21 08:09:26;;;;;;;3.88;2.70;;;;;;;3.09;75.67;97940.78;4862351;29;20131;-71
2023/12/21 08:12:02;;;;;;;4.20;2.45;;;;;;;2.89;75.60;97920.38;4875094;29;20044;-68
2023/12/21 08:14:31;;;;;;;3.85;2.95;;;;;;;2.51;75.63;97877.00;4872900;29;20049;-69
2023/12/21 08:17:02;;;;;;;6.18;2.80;;;;;;;2.90;75.70;97960.63;4875575;29;20102;-70
2023/12/21 08:19:38;;;;;;;;;;;;;;;2.86;75.61;97962.38;4861178;29;20052;-67
2023/12/21 08:22:09;;;;;;;4.63;2.78;;;;;;;2.86;75.55;97957.22;4872827;29;19923;-69
2023/12/21 08:24:43;;;;;;;4.95;2.72;;;;;;;2.81;75.14;97951.25;4854252;29;20040;-70
2023/12/21 08:27:09;;;;;;;4.63;2.47;;;;;;;2.75;75.78;97948.75;4857788;29;20188;-69
2023/12/21 08:29:35;;;;;;;4.28;2.45;;;;;;;2.74;75.55;97950.47;4871774;29;20123;-69
2023/12/21 08:32:04;;;;;;;4.40;2.45;;;;;;;2.80;75.64;97958.13;4875213;29;20052;-70
2023/12/21 08:34:35;;;;;;;5.50;2.60;;;;;;;2.78;75.95;97948.72;4856895;29;20602;-69
2023/12/21 08:37:04;;;;;;;6.18;2.72;;;;;;;2.48;75.38;97901.84;4834803;29;20508;-70
2023/12/21 08:39:39;;;;;;;6.50;2.30;;;;;;;2.61;75.74;97920.59;4877398;29;20105;-73
2023/12/21 08:42:08;;;;;;;3.92;2.95;;;;;;;2.22;75.77;97854.09;4863478;29;20108;-72
2023/12/21 08:44:37;;;;;;;4.50;2.65;;;;;;;2.76;75.74;97940.19;4863655;29;20040;-76
2023/12/21 08:47:14;;;;;;;5.68;2.85;;;;;;;2.46;76.27;97891.56;4886897;29;20037;-74
2023/12/21 08:49:41;;;;;;;3.88;2.78;;;;;;;2.74;75.84;97923.94;4870172;29;20497;-73
2023/12/21 08:52:18;;;;;;;5.40;2.80;;;;;;;2.51;76.14;97889.00;4859456;29;20141;-74
2023/12/21 08:54:56;;;;;;;7.57;2.53;;;;;;;2.76;75.77;97914.50;4882699;29;20072;-72
2023/12/21 08:57:28;;;;;;;4.63;2.45;;;;;;;2.98;76.36;97944.28;4868786;29;20051;-76
2023/12/21 08:59:55;;;;;;;;;;;;;;;3.14;76.00;97959.59;4892123;29;20528;-75
2023/12/21 09:02:42;;;;;;;5.05;2.78;;;;;;;3.15;76.00;97958.72;4873183;29;19924;-76
2023/12/21 09:05:13;;;;;;;6.47;2.70;;;;;;;3.09;75.99;97925.34;4883859;29;20049;-79
2023/12/21 09:07:45;;;;;;;4.20;2.70;;;;;;;3.13;75.84;97925.31;4859629;29;20053;-74
2023/12/21 09:10:16;;;;;;;5.53;2.80;;;;;;;3.10;76.53;97919.34;4862055;29;20049;-75
2023/12/21 09:12:42;;;;;;;5.63;2.80;;;;;;;2.74;76.05;97850.28;4863178;29;20061;-70
2023/12/21 09:15:14;;;;;;;7.55;3.00;;;;;;;2.99;75.39;97892.00;4866719;29;20048;-70
2023/12/21 09:17:43;;;;;;;6.72;3.22;;;;;;;3.11;75.83;97910.78;4866064;29;20068;-72
2023/12/21 09:20:31;;;;;;;7.75;3.00;;;;;;;3.47;75.97;97960.13;4882340;29;20044;-70
2023/12/21 09:23:09;;;;;;;4.45;2.67;;;;;;;3.01;75.97;97880.00;4883012;29;20045;-70
2023/12/21 09:25:38;;;;;;;5.72;2.88;;;;;;;3.42;75.70;97949.06;4851238;29;20059;-73
2023/12/21 09:28:05;;;;;;;5.88;3.08;;;;;;;3.43;75.85;97949.03;4862392;29;20037;-70
2023/12/21 09:31:01;;;;;;;3.92;2.85;;;;;;;3.08;75.74;97872.25;4884199;29;20052;-72
2023/12/21 09:33:33;;;;;;;4.15;2.40;;;;;;;3.66;75.09;97962.53;4869410;29;20042;-71
2023/12/21 09:36:06;;;;;;;4.90;2.70;;;;;;;3.43;76.10;97927.59;4868056;29;20045;-70
2023/12/21 09:38:35;;;;;;;8.60;4.55;;;;;;;3.52;75.63;97947.25;4865101;29;20068;-70
2023/12/21 09:41:01;;;;;;;5.20;2.80;;;;;;;3.67;75.31;97961.66;4884701;29;20136;-69
2023/12/21 09:43:30;;;;;;;4.40;2.70;;;;;;;3.42;75.36;97928.50;4865965;29;20044;-68
2023/12/21 09:46:13;;;;;;;5.57;3.00;;;;;;;3.34;75.17;97909.72;4867165;29;20473;-68
2023/12/21 09:48:42;;;;;;;5.63;2.30;;;;;;;3.41;75.63;97934.50;4884573;29;20560;-69
2023/12/21 09:51:14;;;;;;;4.45;2.60;;;;;;;3.55;75.08;97962.63;4867873;29;20041;-70
2023/12/21 09:53:43;;;;;;;5.00;2.65;;;;;;;3.66;74.80;97973.69;4832550;29;20037;-69
2023/12/21 09:56:15;;;;;;;8.43;2.60;;;;;;;3.56;74.61;97957.50;4865601;29;20045;-70
2023/12/21 09:58:48;;;;;;;3.78;2.20;;;;;;;3.24;74.64;97901.25;4867949;29;20048;-69
2023/12/21 10:01:17;;;;;;;4.47;2.53;;;;;;;3.51;74.71;97941.25;4864082;29;20053;-71
2023/12/21 10:03:44;;;;;;;3.10;2.13;;;;;;;3.72;75.21;97965.03;4877507;29;20052;-70
2023/12/21 10:06:22;;;;;;;2.53;1.75;;;;;;;3.65;74.49;97943.69;4883692;29;20140;-71
2023/12/21 10:08:55;;;;;;;4.00;1.90;;;;;;;3.73;74.48;97970.19;4852247;29;20037;-69
2023/12/21 10:11:22;;;;;;;5.10;2.30;;;;;;;3.57;74.91;97955.75;4883811;29;20052;-69
2023/12/21 10:13:48;;;;;;;2.72;2.17;;;;;;;3.55;74.67;97972.91;4878303;29;20143;-69
2023/12/21 10:16:16;;;;;;;4.28;2.20;;;;;;;3.48;74.97;97951.56;4869347;29;20052;-72
2023/12/21 10:18:45;;;;;;;3.53;2.10;;;;;;;3.61;74.11;97978.88;4862376;29;20069;-72
2023/12/21 10:21:11;;;;;;;2.47;1.98;;;;;;;3.61;74.47;97983.16;4881050;29;20049;-66
2023/12/21 10:23:41;;;;;;;2.25;1.65;;;;;;;3.49;73.46;97976.41;4865480;29;20051;-68
2023/12/21 10:26:14;;;;;;;2.53;1.75;;;;;;;2.90;74.73;97889.53;4878434;29;20049;-70
2023/12/21 10:28:42;;;;;;;3.78;2.08;;;;;;;3.28;74.38;97949.19;4852807;29;20067;-69
2023/12/21 10:31:13;;;;;;;2.97;1.65;;;;;;;3.43;73.66;97979.91;4853504;29;20049;-69
2023/12/21 10:33:50;;;;;;;2.70;1.50;;;;;;;2.72;73.96;97872.56;4867216;29;20041;-71
2023/12/21 10:36:16;;;;;;;2.92;1.58;;;;;;;2.89;74.43;97922.94;4878955;29;20049;-69
2023/12/21 10:38:45;;;;;;;2.22;1.50;;;;;;;3.09;73.35;97966.47;4881019;29;20050;-70
2023/12/21 10:41:34;;;;;;;3.08;1.63;;;;;;;2.92;74.06;97941.78;4868065;29;20055;-72
2023/12/21 10:44:35;;;;;;;1.40;1.30;;;;;;;2.73;73.47;97911.97;4862486;29;20051;-72
2023/12/21 10:47:09;;;;;;;2.03;1.40;;;;;;;3.09;73.37;97987.03;4864498;29;20515;-77
2023/12/21 10:50:01;;;;;;;2.05;1.40;;;;;;;3.10;73.83;97986.19;4867710;29;20041;-71
2023/12/21 10:52:32;;;;;;;4.32;1.80;;;;;;;2.61;73.86;97893.19;4881075;29;20045;-73
2023/12/21 10:55:02;;;;;;;3.35;1.80;;;;;;;2.90;73.44;97951.22;4880787;29;20045;-70
2023/12/21 10:57:43;;;;;;;5.00;1.73;;;;;;;2.55;74.04;97896.66;4866519;29;20037;-70
2023/12/21 11:00:36;;;;;;;4.50;1.63;;;;;;;3.16;73.41;97979.28;4848232;29;20049;-68
2023/12/21 11:03:16;;;;;;;;;;;;;;;;;;;;;
2023/12/21 11:05:51;;;;;;;3.40;1.52;;;;;;;3.15;73.71;97963.88;4858515;29;20103;-71
2023/12/21 11:08:46;;;;;;;2.22;1.50;;;;;;;2.81;73.12;97916.16;4875468;29;20029;-71
2023/12/21 11:11:22;;;;;;;4.40;1.80;;;;;;;3.18;73.27;97976.69;4894470;29;20048;-71
2023/12/21 11:14:03;;;;;;;2.67;1.83;;;;;;;3.26;73.00;97998.03;4866076;29;20110;-73
2023/12/21 11:17:04;;;;;;;4.00;2.08;;;;;;;3.33;72.88;98003.13;4895434;29;20045;-71
2023/12/21 11:19:34;;;;;;;3.03;2.00;;;;;;;3.15;72.65;97959.56;4837383;29;20143;-70
2023/12/21 11:22:09;;;;;;;3.95;1.95;;;;;;;3.17;73.00;97962.97;4867202;29;20041;-72
2023/12/21 11:24:35;;;;;;;3.58;1.90;;;;;;;3.15;73.25;97945.88;4858880;29;20052;-74
2023/12/21 11:27:04;;;;;;;2.35;1.88;;;;;;;2.93;72.86;97914.34;4886556;29;20037;-69
2023/12/21 11:30:12;;;;;;;4.03;2.17;;;;;;;3.55;72.90;98026.94;4886132;29;20447;-70
2023/12/21 11:32:49;;;;;;;3.22;1.95;;;;;;;3.16;72.64;97945.00;4898970;29;20031;-70
2023/12/21 11:35:25;;;;;;;4.68;1.65;;;;;;;3.00;72.56;97924.56;4886087;29;20051;-71
2023/12/21 11:38:05;;;;;;;;;;;;;;;;;;;;;
2023/12/21 11:40:54;;;;;;;;;;;;;;;;;;;;;
2023/12/21 11:43:24;;;;;;;3.17;1.60;;;;;;;3.53;72.22;98008.97;4879132;29;20061;-72
2023/12/21 11:48:54;;;;;;;3.50;2.30;;;;;;;3.43;72.22;98000.47;4870011;29;20037;-72
2023/12/21 11:51:32;;;;;;;4.40;2.17;;;;;;;3.35;72.33;97986.81;4899919;29;20093;-73
2023/12/21 11:54:20;;;;;;;8.75;2.83;;;;;;;3.26;72.58;97971.50;4875305;29;20121;-72
2023/12/21 11:56:46;;;;;;;7.28;3.28;;;;;;;3.42;72.59;98000.50;4878417;29;20049;-73
2023/12/21 11:59:17;;;;;;;13.35;4.22;;;;;;;3.48;72.01;98005.56;4866815;29;20104;-71
2023/12/21 12:01:58;;;;;;;6.90;3.25;;;;;;;3.34;72.77;97981.69;4871662;29;20140;-72
2023/12/21 12:04:28;;;;;;;8.80;3.22;;;;;;;3.33;72.21;97978.25;4882792;29;20044;-71
2023/12/21 12:07:18;;;;;;;7.15;3.33;;;;;;;3.23;72.37;97977.50;4856777;29;20049;-70